Byron, Michigan
Current Conditions -  °F | °C
As of 1:35 PM on Thursday 30 Oct 2014 (Local Time) from KOZW Reporting Station
Overcast Overcast  
Wind Chill: 46°   Ceiling: 4300
Heat Index: 46°   Visibility: 10mi
Dew Point: 36°   Wind: 0mph
Humidity: 69%   Direction: NA
Pressure: 30.1"   Gusts: NA
Location:  42.82°N, 83.94°W
Report Text: KOZW 301735Z AUTO 00000KT 10SM OVC043 08/02 A3010 RMK AO2 T00750021
Loading
Personal Weather Stations






























Interactive Weather Map New forecast layout! Learn more

10-Day Weather Forecast

Advertisements
Track Severe Weather on mobile